Time;durP1;ratioP1;P1;durP2;ratioP2;P2;SDS_P1;SDS_P2;PMS_P1;PMS_P2;Temp;Humidity;BMP_temperature;BMP_pressure;BME280_temperature;BME280_humidity;BME280_pressure;Samples;Min_cycle;Max_cycle;Signal;HPM_P1;HPM_P2
2021/09/13 00:01:24;;;;;;;3.17;2.97;;;24.70;53.10;;;;;;5008724;28;20341;-45
2021/09/13 00:03:50;;;;;;;3.63;2.80;;;24.70;53.00;;;;;;5006232;28;20609;-45
2021/09/13 00:06:15;;;;;;;2.93;2.70;;;24.70;53.10;;;;;;5003541;28;20210;-45
2021/09/13 00:08:41;;;;;;;3.23;3.03;;;24.70;53.20;;;;;;5004554;28;20476;-45
2021/09/13 00:11:06;;;;;;;2.70;2.50;;;24.80;53.60;;;;;;5005120;28;20202;-48
2021/09/13 00:13:32;;;;;;;3.53;2.70;;;24.80;53.00;;;;;;4999471;28;20190;-47
2021/09/13 00:15:58;;;;;;;3.33;3.00;;;24.80;52.90;;;;;;5001688;28;20299;-47
2021/09/13 00:18:23;;;;;;;3.50;3.20;;;24.90;52.90;;;;;;5005103;28;20194;-50
2021/09/13 00:20:49;;;;;;;3.30;3.00;;;24.90;52.80;;;;;;5006061;28;20205;-51
2021/09/13 00:23:15;;;;;;;3.37;3.10;;;24.90;52.80;;;;;;5001364;28;20239;-48
2021/09/13 00:25:40;;;;;;;5.73;3.17;;;24.90;52.60;;;;;;5000940;28;20220;-49
2021/09/13 00:28:06;;;;;;;2.97;2.60;;;24.90;52.60;;;;;;5002257;28;20186;-45
2021/09/13 00:30:31;;;;;;;4.57;2.70;;;24.90;52.60;;;;;;5010046;28;20198;-46
2021/09/13 00:32:57;;;;;;;3.80;3.20;;;24.80;52.80;;;;;;5009510;28;20571;-50
2021/09/13 00:35:25;;;;;;;3.20;3.00;;;24.90;52.80;;;;;;5005779;28;20222;-51
2021/09/13 00:37:51;;;;;;;3.27;3.07;;;24.90;52.70;;;;;;5005286;28;21103;-51
2021/09/13 00:40:16;;;;;;;2.80;2.50;;;24.90;52.70;;;;;;5006677;28;20558;-51
2021/09/13 00:42:42;;;;;;;3.40;2.33;;;24.90;52.60;;;;;;5003151;28;20272;-45
2021/09/13 00:45:08;;;;;;;3.63;3.33;;;24.90;52.60;;;;;;4996230;28;20195;-45
2021/09/13 00:47:34;;;;;;;3.83;3.10;;;24.90;52.80;;;;;;5003214;28;20595;-48
2021/09/13 00:50:00;;;;;;;2.77;2.50;;;24.80;52.80;;;;;;5001909;28;20580;-50
2021/09/13 00:52:26;;;;;;;2.93;2.73;;;24.80;53.30;;;;;;5003643;28;20220;-49
2021/09/13 00:54:52;;;;;;;6.10;2.97;;;24.80;52.40;;;;;;5005639;28;20501;-48
2021/09/13 00:57:18;;;;;;;2.67;2.47;;;24.60;53.00;;;;;;5002279;28;20201;-47
2021/09/13 00:59:43;;;;;;;3.10;2.90;;;24.60;53.00;;;;;;5002898;28;20476;-51
2021/09/13 01:02:09;;;;;;;3.80;2.87;;;24.50;53.10;;;;;;5001644;28;20502;-46
2021/09/13 01:04:35;;;;;;;2.70;2.50;;;24.60;53.20;;;;;;5002569;28;20197;-45
2021/09/13 01:07:01;;;;;;;3.03;2.83;;;24.50;53.30;;;;;;5001674;28;20201;-45
2021/09/13 01:09:26;;;;;;;2.97;2.70;;;24.50;53.50;;;;;;5000392;28;20236;-48
2021/09/13 01:11:53;;;;;;;3.17;2.97;;;24.50;53.60;;;;;;4998163;28;20553;-47
2021/09/13 01:14:19;;;;;;;3.57;2.97;;;24.60;53.50;;;;;;5000192;28;20294;-49
2021/09/13 01:16:45;;;;;;;3.33;3.03;;;24.70;53.30;;;;;;5005541;28;20562;-46
2021/09/13 01:19:11;;;;;;;3.67;3.20;;;24.60;52.90;;;;;;5004376;28;20531;-46
2021/09/13 01:21:40;;;;;;;3.30;3.00;;;24.60;53.00;;;;;;5001467;28;20529;-45
2021/09/13 01:24:06;;;;;;;4.20;2.80;;;24.60;53.10;;;;;;5005272;28;20644;-45
2021/09/13 01:26:31;;;;;;;2.93;2.63;;;24.50;53.00;;;;;;5001293;28;20433;-45
2021/09/13 01:28:57;;;;;;;4.10;3.20;;;24.50;53.20;;;;;;5004954;28;20444;-45
2021/09/13 01:31:22;;;;;;;3.10;2.60;;;24.60;53.20;;;;;;5006044;28;20610;-46
2021/09/13 01:33:48;;;;;;;2.73;2.53;;;24.60;53.00;;;;;;5007218;28;20198;-45
2021/09/13 01:36:14;;;;;;;2.73;2.53;;;24.50;53.10;;;;;;5011693;28;20217;-46
2021/09/13 01:38:39;;;;;;;2.97;2.77;;;24.60;53.20;;;;;;5010696;28;20753;-45
2021/09/13 01:41:05;;;;;;;3.43;3.20;;;24.50;53.00;;;;;;5010396;28;20202;-51
2021/09/13 01:43:31;;;;;;;2.73;2.53;;;24.50;53.60;;;;;;5006635;28;20203;-45
2021/09/13 01:45:56;;;;;;;9.00;3.40;;;24.50;53.00;;;;;;5009436;28;20236;-45
2021/09/13 01:48:22;;;;;;;3.10;2.80;;;24.60;53.10;;;;;;5005795;28;21772;-46
2021/09/13 01:50:47;;;;;;;3.53;3.00;;;24.50;53.10;;;;;;5007351;28;20267;-46
2021/09/13 01:53:13;;;;;;;2.83;2.60;;;24.50;53.30;;;;;;5007729;28;20257;-45
2021/09/13 01:55:39;;;;;;;7.73;3.27;;;24.50;53.20;;;;;;5006218;28;20233;-45
2021/09/13 01:58:05;;;;;;;6.83;3.07;;;24.40;53.10;;;;;;5007928;28;20245;-46
2021/09/13 02:00:30;;;;;;;4.77;3.17;;;24.40;53.30;;;;;;5008488;28;20198;-46
2021/09/13 02:02:56;;;;;;;3.33;3.10;;;24.40;53.30;;;;;;5005109;28;20285;-45
2021/09/13 02:05:21;;;;;;;2.87;2.67;;;24.40;53.00;;;;;;5008053;28;20194;-45
2021/09/13 02:07:47;;;;;;;3.10;2.73;;;24.40;53.40;;;;;;5001657;28;20202;-51
2021/09/13 02:10:12;;;;;;;3.27;3.07;;;24.10;53.30;;;;;;5006576;28;20285;-51
2021/09/13 02:12:38;;;;;;;3.20;2.87;;;23.90;53.80;;;;;;5006534;28;20228;-51
2021/09/13 02:15:04;;;;;;;3.33;2.93;;;23.90;54.30;;;;;;5007213;28;20241;-50
2021/09/13 02:17:30;;;;;;;3.47;3.17;;;23.90;53.90;;;;;;5003691;28;20198;-48
2021/09/13 02:19:55;;;;;;;4.33;2.80;;;23.90;54.00;;;;;;5006558;28;20831;-51
2021/09/13 02:22:21;;;;;;;3.47;2.73;;;23.70;53.80;;;;;;5006343;28;20624;-47
2021/09/13 02:24:47;;;;;;;3.70;3.40;;;23.30;54.30;;;;;;5006246;28;20201;-46
2021/09/13 02:27:12;;;;;;;4.03;3.20;;;23.20;55.80;;;;;;5008433;28;20190;-50
2021/09/13 02:29:38;;;;;;;2.80;2.60;;;23.20;55.60;;;;;;5003604;28;20240;-50
2021/09/13 02:32:03;;;;;;;2.90;2.70;;;23.40;55.50;;;;;;5004150;28;20225;-49
2021/09/13 02:34:30;;;;;;;3.77;3.00;;;23.60;55.20;;;;;;5005293;28;20198;-51
2021/09/13 02:36:56;;;;;;;3.50;2.60;;;23.70;54.70;;;;;;5005026;28;20209;-50
2021/09/13 02:39:21;;;;;;;3.90;3.10;;;23.70;54.50;;;;;;5006630;28;20464;-51
2021/09/13 02:41:47;;;;;;;3.30;3.00;;;23.70;54.30;;;;;;5007348;28;20198;-50
2021/09/13 02:44:13;;;;;;;3.20;2.90;;;23.80;54.20;;;;;;5004448;28;20201;-50
2021/09/13 02:46:38;;;;;;;3.00;2.80;;;23.70;53.90;;;;;;5008033;28;20459;-51
2021/09/13 02:49:04;;;;;;;2.97;2.60;;;23.70;54.00;;;;;;5006922;28;20557;-52
2021/09/13 02:51:29;;;;;;;3.03;2.80;;;23.60;54.40;;;;;;5000173;28;20212;-50
2021/09/13 02:53:55;;;;;;;4.20;2.73;;;23.60;54.40;;;;;;5002719;28;20657;-50
2021/09/13 02:56:20;;;;;;;3.23;2.90;;;23.60;54.40;;;;;;5007019;28;20257;-51
2021/09/13 02:58:46;;;;;;;3.47;3.27;;;23.70;54.50;;;;;;5003497;28;20234;-49
2021/09/13 03:01:12;;;;;;;3.00;2.80;;;23.60;54.80;;;;;;5002830;28;20213;-49
2021/09/13 03:03:39;;;;;;;2.97;2.77;;;23.60;54.70;;;;;;5005508;28;20224;-47
2021/09/13 03:06:04;;;;;;;2.47;2.30;;;23.60;54.60;;;;;;5004382;28;20495;-47
2021/09/13 03:08:30;;;;;;;3.27;2.93;;;23.70;54.60;;;;;;5001101;28;20493;-45
2021/09/13 03:10:56;;;;;;;3.40;3.10;;;23.80;54.30;;;;;;5007907;28;20194;-47
2021/09/13 03:13:21;;;;;;;3.90;3.60;;;23.80;53.60;;;;;;5005773;28;20233;-46
2021/09/13 03:15:47;;;;;;;4.20;3.50;;;23.80;52.70;;;;;;5002083;28;20264;-45
2021/09/13 03:18:12;;;;;;;3.67;3.37;;;23.60;52.70;;;;;;5007659;28;20198;-46
2021/09/13 03:20:38;;;;;;;3.57;3.23;;;23.40;52.90;;;;;;5005019;28;20631;-46
2021/09/13 03:23:04;;;;;;;8.27;4.13;;;23.10;53.20;;;;;;5005049;28;20264;-51
2021/09/13 03:25:30;;;;;;;3.90;3.30;;;22.90;53.70;;;;;;5005201;28;20218;-46
2021/09/13 03:27:58;;;;;;;4.80;3.20;;;22.80;54.30;;;;;;5004160;28;20481;-45
2021/09/13 03:30:23;;;;;;;5.27;3.73;;;22.50;54.80;;;;;;5003281;28;20273;-45
2021/09/13 03:32:49;;;;;;;3.77;3.47;;;22.30;55.30;;;;;;5004340;28;20544;-46
2021/09/13 03:35:14;;;;;;;4.20;2.90;;;22.00;56.20;;;;;;5005957;28;20761;-46
2021/09/13 03:37:40;;;;;;;3.27;3.03;;;21.70;56.90;;;;;;5005684;28;20205;-47
2021/09/13 03:40:06;;;;;;;4.67;3.87;;;21.40;57.50;;;;;;5004025;28;20568;-46
2021/09/13 03:42:32;;;;;;;4.43;3.63;;;21.30;57.90;;;;;;5007101;28;20204;-47
2021/09/13 03:44:57;;;;;;;3.50;3.23;;;21.20;58.20;;;;;;5006313;28;20444;-49
2021/09/13 03:47:23;;;;;;;4.50;2.97;;;21.10;58.40;;;;;;5006795;28;20232;-45
2021/09/13 03:49:49;;;;;;;4.70;4.30;;;21.10;58.80;;;;;;5007239;28;20242;-47
2021/09/13 03:52:14;;;;;;;4.60;3.63;;;20.80;59.30;;;;;;5009552;28;20590;-46
2021/09/13 03:54:40;;;;;;;3.60;3.30;;;20.70;59.80;;;;;;5007154;28;20196;-46
2021/09/13 03:57:06;;;;;;;4.43;3.40;;;20.70;59.70;;;;;;5005008;28;20256;-45
2021/09/13 03:59:32;;;;;;;6.07;4.23;;;20.40;60.80;;;;;;5005377;28;20693;-46
2021/09/13 04:01:58;;;;;;;3.23;2.90;;;20.30;61.40;;;;;;5004257;28;20441;-46
2021/09/13 04:04:27;;;;;;;3.90;3.50;;;20.40;61.20;;;;;;5001414;28;20545;-45
2021/09/13 04:11:58;;;;;;;3.77;3.47;;;19.90;63.20;;;;;;5003156;28;20440;-46
2021/09/13 04:14:26;;;;;;;3.97;3.57;;;20.00;62.70;;;;;;5000614;28;20441;-45
2021/09/13 04:16:52;;;;;;;4.43;4.00;;;20.10;62.40;;;;;;5002771;28;20488;-45
2021/09/13 04:19:18;;;;;;;6.53;3.50;;;20.20;62.00;;;;;;5002644;28;20531;-47
2021/09/13 04:21:44;;;;;;;3.93;3.63;;;20.10;62.00;;;;;;5006565;28;20226;-47
2021/09/13 04:24:10;;;;;;;4.10;3.40;;;20.20;62.00;;;;;;4998695;28;20527;-46
2021/09/13 04:26:35;;;;;;;5.40;3.63;;;20.20;61.90;;;;;;5002161;28;21657;-46
2021/09/13 04:29:01;;;;;;;4.50;4.10;;;20.20;61.70;;;;;;5004924;28;20202;-47
2021/09/13 04:31:27;;;;;;;4.30;3.63;;;20.10;62.00;;;;;;5002439;28;20193;-46
2021/09/13 04:33:53;;;;;;;3.60;3.30;;;20.10;61.90;;;;;;5005308;28;20472;-49
2021/09/13 04:36:19;;;;;;;3.70;3.40;;;20.30;61.60;;;;;;5004298;28;20229;-47
2021/09/13 04:38:44;;;;;;;3.60;3.33;;;20.20;61.70;;;;;;5004727;28;20445;-47
2021/09/13 04:41:10;;;;;;;4.33;4.03;;;20.30;61.60;;;;;;5003510;28;20196;-47
2021/09/13 04:43:36;;;;;;;3.97;3.67;;;20.20;62.00;;;;;;5004496;28;20194;-46
2021/09/13 04:46:01;;;;;;;3.67;3.37;;;20.10;62.30;;;;;;5002598;28;20190;-45
2021/09/13 04:48:27;;;;;;;6.90;4.10;;;19.80;63.00;;;;;;5003458;28;20200;-45
2021/09/13 04:50:53;;;;;;;5.53;4.57;;;19.80;63.60;;;;;;5006237;28;20185;-47
2021/09/13 04:53:21;;;;;;;4.90;3.83;;;19.80;63.40;;;;;;5004046;28;20194;-49
2021/09/13 04:55:48;;;;;;;4.60;4.27;;;19.70;63.50;;;;;;5006412;28;20245;-49
2021/09/13 04:58:13;;;;;;;4.90;3.40;;;19.70;63.70;;;;;;5004033;28;20484;-46
2021/09/13 05:00:44;;;;;;;4.00;3.70;;;19.80;63.70;;;;;;5002434;28;20449;-48
2021/09/13 05:03:10;;;;;;;4.13;3.83;;;19.90;63.00;;;;;;5005865;28;20197;-50
2021/09/13 05:05:36;;;;;;;5.03;4.63;;;19.90;62.50;;;;;;5007004;28;20445;-48
2021/09/13 05:08:01;;;;;;;5.17;4.63;;;19.80;63.30;;;;;;5010388;28;20194;-49
2021/09/13 05:10:27;;;;;;;6.23;3.70;;;19.90;62.70;;;;;;5010378;28;20244;-49
2021/09/13 05:12:53;;;;;;;6.20;3.43;;;20.00;68.80;;;;;;5009388;28;20194;-46
2021/09/13 05:15:18;;;;;;;5.30;2.87;;;20.30;65.20;;;;;;5009081;28;20222;-45
2021/09/13 05:17:44;;;;;;;4.07;3.50;;;20.70;62.30;;;;;;5008440;28;20186;-46
2021/09/13 05:20:11;;;;;;;3.40;3.10;;;20.90;60.90;;;;;;5004282;28;20240;-50
2021/09/13 05:22:37;;;;;;;4.43;3.33;;;21.10;59.70;;;;;;5003740;28;20190;-47
2021/09/13 05:25:03;;;;;;;3.50;3.20;;;21.30;59.00;;;;;;5012936;28;20506;-47
2021/09/13 05:27:29;;;;;;;10.80;3.57;;;21.50;58.60;;;;;;5008023;28;20448;-47
2021/09/13 05:29:54;;;;;;;3.73;3.27;;;21.60;58.10;;;;;;5009628;28;20464;-46
2021/09/13 05:32:20;;;;;;;3.80;3.50;;;21.70;57.60;;;;;;5012119;28;20205;-48
2021/09/13 05:34:46;;;;;;;5.70;3.67;;;21.70;57.20;;;;;;5013240;28;20292;-46
2021/09/13 05:37:11;;;;;;;8.73;3.77;;;21.80;57.10;;;;;;5015057;28;20272;-48
2021/09/13 05:39:37;;;;;;;3.27;2.97;;;21.80;56.80;;;;;;5013454;28;20221;-47
2021/09/13 05:42:03;;;;;;;4.00;3.00;;;21.90;56.60;;;;;;5010489;28;20672;-46
2021/09/13 05:44:29;;;;;;;3.47;3.17;;;22.00;56.50;;;;;;5006653;28;20194;-46
2021/09/13 05:46:55;;;;;;;4.50;3.10;;;22.00;56.30;;;;;;5005493;28;20194;-46
2021/09/13 05:49:20;;;;;;;3.50;3.20;;;22.10;56.00;;;;;;5005781;28;20506;-47
2021/09/13 05:51:46;;;;;;;3.33;3.13;;;22.20;56.00;;;;;;5013760;28;20202;-47
2021/09/13 05:54:14;;;;;;;3.10;2.80;;;22.10;55.70;;;;;;5013081;28;20202;-46
2021/09/13 05:56:49;;;;;;;3.70;3.43;;;22.10;55.90;;;;;;5010531;28;20340;-46
2021/09/13 05:59:14;;;;;;;3.83;3.47;;;22.20;55.90;;;;;;5013470;28;20476;-49
2021/09/13 06:01:40;;;;;;;3.77;3.40;;;22.30;55.80;;;;;;5014056;28;20502;-45
2021/09/13 06:04:05;;;;;;;4.50;3.70;;;22.30;55.60;;;;;;5001315;28;20197;-45
2021/09/13 06:06:31;;;;;;;4.07;3.30;;;22.40;55.70;;;;;;5010682;28;20535;-47
2021/09/13 06:08:57;;;;;;;4.37;3.97;;;22.40;55.60;;;;;;5003091;28;20191;-45
2021/09/13 06:11:26;;;;;;;5.70;4.63;;;22.50;55.60;;;;;;4996057;28;20226;-46
2021/09/13 06:13:52;;;;;;;3.60;3.30;;;22.50;55.70;;;;;;5001764;28;20557;-48
2021/09/13 06:16:17;;;;;;;4.87;3.73;;;22.60;55.90;;;;;;5007856;28;20488;-50
2021/09/13 06:18:43;;;;;;;5.80;3.87;;;22.60;55.70;;;;;;5011288;28;20201;-45
2021/09/13 06:21:09;;;;;;;3.90;3.60;;;22.70;55.80;;;;;;5008692;28;20631;-45
2021/09/13 06:23:34;;;;;;;3.93;3.60;;;22.70;55.70;;;;;;5012291;28;20189;-45
2021/09/13 06:26:00;;;;;;;5.30;3.93;;;22.60;55.50;;;;;;5011351;28;20186;-50
2021/09/13 06:28:25;;;;;;;28.77;4.73;;;22.70;55.70;;;;;;5006509;28;20247;-46
2021/09/13 06:30:51;;;;;;;10.50;4.40;;;22.60;57.20;;;;;;5000818;28;20197;-46
2021/09/13 06:33:17;;;;;;;19.07;4.80;;;22.60;57.80;;;;;;5005976;28;20198;-45
2021/09/13 06:35:43;;;;;;;5.67;3.60;;;22.60;58.00;;;;;;5005284;28;20228;-47
2021/09/13 06:38:08;;;;;;;8.23;3.63;;;22.80;57.80;;;;;;5009617;28;20429;-46
2021/09/13 06:40:35;;;;;;;5.77;3.43;;;22.90;58.10;;;;;;5005993;28;20195;-46
2021/09/13 06:43:01;;;;;;;18.87;4.30;;;23.10;57.20;;;;;;4996844;28;20203;-46
2021/09/13 06:45:26;;;;;;;23.53;5.97;;;23.10;57.40;;;;;;4997511;28;21028;-45
2021/09/13 06:47:52;;;;;;;10.23;4.23;;;23.30;56.30;;;;;;5008776;28;20205;-45
2021/09/13 06:50:22;;;;;;;10.90;4.67;;;23.30;56.80;;;;;;5009153;28;20403;-45
2021/09/13 06:52:50;;;;;;;8.03;4.20;;;23.20;56.70;;;;;;5011818;28;20300;-45
2021/09/13 06:55:16;;;;;;;4.60;4.20;;;23.30;56.40;;;;;;5006439;28;20500;-46
2021/09/13 06:57:42;;;;;;;4.10;3.27;;;23.50;55.80;;;;;;5005438;28;20473;-48
2021/09/13 07:00:13;;;;;;;4.97;3.20;;;23.70;55.40;;;;;;5010993;28;20425;-47
2021/09/13 07:02:43;;;;;;;4.23;3.20;;;24.00;54.90;;;;;;4992730;28;20428;-49
2021/09/13 07:05:10;;;;;;;4.87;3.27;;;24.30;54.40;;;;;;5003507;28;20451;-47
2021/09/13 07:07:37;;;;;;;4.20;3.10;;;24.50;53.90;;;;;;5010716;28;20964;-45
2021/09/13 07:10:05;;;;;;;3.80;3.13;;;24.60;53.40;;;;;;5010606;28;20444;-46
2021/09/13 07:12:31;;;;;;;3.67;3.40;;;24.70;53.30;;;;;;5011163;28;20441;-47
2021/09/13 07:14:57;;;;;;;3.43;3.13;;;25.00;52.80;;;;;;5002571;28;20478;-45
2021/09/13 07:17:22;;;;;;;3.33;3.00;;;25.20;52.20;;;;;;4999445;28;20449;-45
2021/09/13 07:19:51;;;;;;;3.50;3.20;;;25.30;51.90;;;;;;5008725;28;20226;-45
2021/09/13 07:22:16;;;;;;;4.20;3.10;;;25.50;51.40;;;;;;5011934;28;20198;-45
2021/09/13 07:24:43;;;;;;;3.60;3.20;;;25.70;51.10;;;;;;4999685;28;20453;-49
2021/09/13 07:27:09;;;;;;;3.07;2.77;;;25.80;50.90;;;;;;5001430;28;20199;-47
2021/09/13 07:29:35;;;;;;;4.30;2.93;;;25.90;50.60;;;;;;5003065;28;20853;-50
2021/09/13 07:32:02;;;;;;;3.90;3.37;;;26.10;50.30;;;;;;5010991;28;20460;-45
2021/09/13 07:34:28;;;;;;;2.87;2.67;;;26.30;49.60;;;;;;5009658;28;20197;-45
2021/09/13 07:36:55;;;;;;;6.00;3.33;;;26.40;49.30;;;;;;5011236;28;20488;-46
2021/09/13 07:39:25;;;;;;;2.80;2.50;;;26.50;49.40;;;;;;5003770;28;20448;-47
2021/09/13 07:41:51;;;;;;;3.20;2.90;;;26.50;49.20;;;;;;5011903;28;20480;-47
2021/09/13 07:44:17;;;;;;;3.70;3.20;;;26.60;49.00;;;;;;5003138;28;20464;-46
2021/09/13 07:46:43;;;;;;;3.57;3.10;;;26.70;48.50;;;;;;5011453;28;20928;-45
2021/09/13 07:49:08;;;;;;;3.17;2.97;;;26.80;48.70;;;;;;5010562;28;20202;-46
2021/09/13 07:51:35;;;;;;;4.07;3.70;;;26.90;48.30;;;;;;5006372;28;20446;-45
2021/09/13 07:54:00;;;;;;;3.30;3.10;;;27.00;48.10;;;;;;5002379;28;20190;-45
2021/09/13 07:56:26;;;;;;;3.80;3.40;;;27.00;47.70;;;;;;4997280;28;20866;-47
2021/09/13 07:58:52;;;;;;;3.00;2.80;;;27.10;47.80;;;;;;5001480;28;20688;-45
2021/09/13 08:01:17;;;;;;;4.43;2.90;;;27.20;47.90;;;;;;5010761;28;20301;-46
2021/09/13 08:03:43;;;;;;;2.53;2.33;;;27.20;47.60;;;;;;5010354;28;20277;-46
2021/09/13 08:06:08;;;;;;;3.27;2.97;;;27.20;47.60;;;;;;5008516;28;20229;-46
2021/09/13 08:08:37;;;;;;;3.97;2.87;;;27.40;47.10;;;;;;5004451;28;20304;-46
2021/09/13 08:11:04;;;;;;;3.50;3.20;;;27.40;46.90;;;;;;5008855;28;20205;-48
2021/09/13 08:13:30;;;;;;;5.17;3.00;;;27.40;47.60;;;;;;5009217;28;20834;-47
2021/09/13 08:15:55;;;;;;;3.27;3.00;;;27.50;46.90;;;;;;5009426;28;20523;-47
2021/09/13 08:18:21;;;;;;;2.80;2.60;;;27.60;46.20;;;;;;5007296;28;20562;-48
2021/09/13 08:20:47;;;;;;;2.87;2.67;;;27.70;46.20;;;;;;5008454;28;20867;-45
2021/09/13 08:23:12;;;;;;;3.07;2.87;;;27.70;45.90;;;;;;5005159;28;20193;-45
2021/09/13 08:25:38;;;;;;;5.23;3.23;;;27.70;45.90;;;;;;5005960;28;20190;-46
2021/09/13 08:28:04;;;;;;;2.83;2.63;;;27.80;45.80;;;;;;5009602;28;20201;-48
2021/09/13 08:30:29;;;;;;;3.00;2.77;;;27.90;46.30;;;;;;5009735;28;20309;-45
2021/09/13 08:32:55;;;;;;;3.90;3.50;;;28.00;45.60;;;;;;5005616;28;20201;-49
2021/09/13 08:35:21;;;;;;;3.10;2.83;;;28.10;45.60;;;;;;5009233;28;20256;-46
2021/09/13 08:37:47;;;;;;;2.90;2.60;;;28.10;44.90;;;;;;5010184;28;20632;-46
2021/09/13 08:40:12;;;;;;;3.30;3.10;;;28.20;44.60;;;;;;5006724;28;20198;-45
2021/09/13 08:42:47;;;;;;;3.87;3.37;;;28.10;44.60;;;;;;5011463;28;20593;-46
2021/09/13 08:45:22;;;;;;;3.90;3.20;;;28.10;45.00;;;;;;5006429;28;20189;-51
2021/09/13 08:53:17;;;;;;;2.90;2.70;;;27.90;45.30;;;;;;5014688;28;20448;-45
2021/09/13 08:55:44;;;;;;;3.07;2.57;;;28.00;45.50;;;;;;5014179;28;20480;-49
2021/09/13 08:58:13;;;;;;;3.10;2.83;;;28.10;45.40;;;;;;5014581;28;20483;-45
2021/09/13 09:00:42;;;;;;;4.03;3.03;;;28.40;45.00;;;;;;5013346;28;20447;-45
2021/09/13 09:03:09;;;;;;;2.97;2.77;;;28.40;44.50;;;;;;5012449;28;20433;-46
2021/09/13 09:05:48;;;;;;;3.20;2.90;;;28.50;44.50;;;;;;5014667;28;20521;-49
2021/09/13 09:08:31;;;;;;;3.10;2.80;;;28.60;44.00;;;;;;5013362;28;20800;-47
2021/09/13 09:11:03;;;;;;;2.30;2.20;;;28.60;43.70;;;;;;5016232;28;20515;-47
2021/09/13 09:13:43;;;;;;;2.63;2.40;;;28.60;43.90;;;;;;5016820;28;20963;-45
2021/09/13 09:16:14;;;;;;;3.57;2.57;;;28.70;43.50;;;;;;5015202;28;20488;-45
2021/09/13 09:18:41;;;;;;;3.43;3.23;;;28.60;43.10;;;;;;5013175;28;20437;-48
2021/09/13 09:21:12;;;;;;;2.63;2.43;;;28.80;43.70;;;;;;5013173;28;20456;-51
2021/09/13 09:24:13;;;;;;;2.93;2.67;;;28.90;43.60;;;;;;5013868;28;20440;-46
2021/09/13 09:26:39;;;;;;;2.73;2.53;;;29.20;43.20;;;;;;4984506;28;20436;-48
2021/09/13 09:29:04;;;;;;;3.03;2.77;;;29.40;42.10;;;;;;5010255;28;20801;-49
2021/09/13 09:31:41;;;;;;;3.27;2.97;;;29.40;41.00;;;;;;5014435;28;20200;-48
2021/09/13 09:34:12;;;;;;;2.93;2.70;;;29.30;41.60;;;;;;5010258;28;20528;-52
2021/09/13 09:36:38;;;;;;;3.20;2.90;;;29.40;41.70;;;;;;5013007;28;20864;-45
2021/09/13 09:39:13;;;;;;;2.90;2.70;;;29.50;41.30;;;;;;5010454;28;21204;-44
2021/09/13 09:41:43;;;;;;;2.80;2.60;;;29.70;41.80;;;;;;5014714;28;20433;-45
2021/09/13 09:44:10;;;;;;;2.77;2.60;;;29.90;42.10;;;;;;5006801;28;20513;-45
2021/09/13 09:46:43;;;;;;;3.73;2.70;;;30.00;40.90;;;;;;5010462;28;20439;-46
2021/09/13 09:49:15;;;;;;;3.77;3.47;;;30.00;40.80;;;;;;5007766;28;20441;-45
2021/09/13 09:51:49;;;;;;;3.10;2.90;;;30.10;41.00;;;;;;5006521;28;20434;-45
2021/09/13 09:54:20;;;;;;;3.23;2.87;;;30.20;41.20;;;;;;5005862;28;20517;-46
2021/09/13 09:56:55;;;;;;;3.27;2.90;;;30.30;41.30;;;;;;5011239;28;20511;-45
2021/09/13 09:59:21;;;;;;;3.20;3.00;;;30.40;40.60;;;;;;5004443;28;20479;-47
2021/09/13 10:01:48;;;;;;;5.43;4.30;;;30.60;40.40;;;;;;5010329;28;20438;-49
2021/09/13 10:04:23;;;;;;;5.20;4.07;;;30.70;40.00;;;;;;4997046;28;20654;-45
2021/09/13 10:06:59;;;;;;;7.57;5.40;;;30.90;40.50;;;;;;5012029;28;20444;-45
2021/09/13 10:09:28;;;;;;;5.10;4.13;;;31.10;41.00;;;;;;4996779;28;20442;-45
2021/09/13 10:11:56;;;;;;;4.10;3.57;;;31.20;40.50;;;;;;5001258;28;20476;-47
2021/09/13 10:14:24;;;;;;;7.30;4.80;;;31.30;39.60;;;;;;5002412;28;20943;-45
2021/09/13 10:16:51;;;;;;;4.77;4.30;;;31.40;40.30;;;;;;5010031;28;20484;-45
2021/09/13 10:19:19;;;;;;;3.90;3.60;;;31.60;40.40;;;;;;4997868;28;20430;-45
2021/09/13 10:21:46;;;;;;;3.63;3.33;;;31.40;39.20;;;;;;5012521;28;20800;-46
2021/09/13 10:24:22;;;;;;;3.80;3.50;;;31.30;40.10;;;;;;5004670;28;20444;-45
2021/09/13 10:26:54;;;;;;;6.33;4.23;;;31.50;39.90;;;;;;5006121;28;20771;-46
2021/09/13 10:29:25;;;;;;;4.67;4.27;;;31.80;40.40;;;;;;5010205;28;20433;-46
2021/09/13 10:31:51;;;;;;;5.87;3.30;;;32.00;39.20;;;;;;5007658;28;20445;-45
2021/09/13 10:34:17;;;;;;;3.90;3.60;;;32.20;38.90;;;;;;5001722;28;20429;-45
2021/09/13 10:36:59;;;;;;;3.60;3.30;;;32.20;39.10;;;;;;5005206;28;20225;-47
2021/09/13 10:39:46;;;;;;;4.10;3.80;;;32.30;38.40;;;;;;5005527;28;20453;-46
2021/09/13 10:42:30;;;;;;;4.27;3.97;;;32.50;38.70;;;;;;5010448;28;20441;-46
2021/09/13 10:45:25;;;;;;;4.60;4.13;;;32.60;38.60;;;;;;5010317;28;20469;-46
2021/09/13 10:48:01;;;;;;;5.30;4.40;;;32.70;38.70;;;;;;4976413;28;20461;-45
2021/09/13 10:50:39;;;;;;;4.10;3.77;;;32.80;38.30;;;;;;5012231;28;20440;-45
2021/09/13 10:53:25;;;;;;;4.70;3.30;;;32.90;38.60;;;;;;4997466;28;21131;-46
2021/09/13 10:55:59;;;;;;;4.20;3.80;;;32.90;38.60;;;;;;5003454;28;20480;-47
2021/09/13 10:58:33;;;;;;;3.50;3.20;;;32.90;38.30;;;;;;5011177;28;20481;-45
2021/09/13 11:01:00;;;;;;;4.87;3.10;;;33.00;39.00;;;;;;5010442;28;20449;-46
2021/09/13 11:03:29;;;;;;;3.70;3.40;;;33.00;37.80;;;;;;5010429;28;20429;-45
2021/09/13 11:06:17;;;;;;;4.10;3.80;;;33.00;38.20;;;;;;4993127;28;20429;-45
2021/09/13 11:08:47;;;;;;;3.80;3.47;;;33.20;37.30;;;;;;5010474;28;20452;-45
2021/09/13 11:11:28;;;;;;;3.80;3.30;;;33.20;37.70;;;;;;5012281;28;20436;-46
2021/09/13 11:14:01;;;;;;;3.30;3.10;;;33.40;37.00;;;;;;4992803;28;20438;-45
2021/09/13 11:16:28;;;;;;;3.30;3.10;;;33.40;37.50;;;;;;4997285;28;20992;-45
2021/09/13 11:18:54;;;;;;;2.77;2.57;;;33.50;37.30;;;;;;5011970;28;20441;-44
2021/09/13 11:21:25;;;;;;;3.20;3.00;;;33.70;37.20;;;;;;5007876;28;20924;-45
2021/09/13 11:23:53;;;;;;;3.37;3.17;;;33.70;37.40;;;;;;5001950;28;20205;-45
2021/09/13 11:26:27;;;;;;;3.80;3.30;;;33.70;37.20;;;;;;5008210;28;20437;-44
2021/09/13 11:28:52;;;;;;;3.57;3.37;;;33.80;37.10;;;;;;5000870;28;20521;-45
2021/09/13 11:31:36;;;;;;;3.80;3.50;;;33.50;35.50;;;;;;4994032;28;20624;-44
2021/09/13 11:34:18;;;;;;;3.20;3.00;;;33.20;37.30;;;;;;5003365;28;20190;-46
2021/09/13 11:37:26;;;;;;;3.70;3.30;;;33.20;36.70;;;;;;5007059;28;20530;-46
2021/09/13 11:40:00;;;;;;;3.50;3.30;;;33.30;36.90;;;;;;5005498;28;20452;-45
2021/09/13 11:42:30;;;;;;;3.43;3.23;;;33.00;36.70;;;;;;5008123;28;20842;-46
2021/09/13 11:45:05;;;;;;;3.90;3.60;;;32.80;37.70;;;;;;5008172;28;20440;-49
2021/09/13 11:47:33;;;;;;;6.90;3.30;;;32.80;36.80;;;;;;5009163;28;20440;-46
2021/09/13 11:50:01;;;;;;;5.40;3.30;;;32.80;38.10;;;;;;5004964;28;20671;-49
2021/09/13 11:52:39;;;;;;;5.63;3.37;;;33.10;37.70;;;;;;5005026;28;20474;-46
2021/09/13 11:55:09;;;;;;;3.80;3.50;;;33.10;37.30;;;;;;5011223;28;20441;-46
2021/09/13 11:57:44;;;;;;;3.50;3.30;;;33.30;36.10;;;;;;5008999;28;20483;-45
2021/09/13 12:00:23;;;;;;;3.10;2.90;;;33.50;36.60;;;;;;5005096;28;20992;-46
2021/09/13 12:02:55;;;;;;;3.10;2.90;;;33.80;36.90;;;;;;5002887;28;20485;-46
2021/09/13 12:05:32;;;;;;;3.37;3.17;;;33.90;36.80;;;;;;5013946;28;20444;-46
2021/09/13 12:07:59;;;;;;;3.77;3.47;;;34.10;36.50;;;;;;5005725;28;20463;-48
2021/09/13 12:10:31;;;;;;;3.10;2.90;;;34.20;36.50;;;;;;5002516;28;20433;-46
2021/09/13 12:13:01;;;;;;;3.07;2.97;;;34.30;36.10;;;;;;5007614;28;20919;-47
2021/09/13 12:15:31;;;;;;;3.17;2.97;;;34.50;34.20;;;;;;5008885;28;20558;-48
2021/09/13 12:17:57;;;;;;;3.47;3.20;;;34.50;35.20;;;;;;5009165;28;20798;-46
2021/09/13 12:20:33;;;;;;;3.50;3.30;;;34.50;34.50;;;;;;5008150;28;20453;-47
2021/09/13 12:23:09;;;;;;;3.63;3.40;;;34.50;34.80;;;;;;5000531;28;20540;-48
2021/09/13 12:25:39;;;;;;;3.03;2.80;;;34.60;35.20;;;;;;5007766;28;20460;-45
2021/09/13 12:28:06;;;;;;;4.20;3.23;;;34.60;35.20;;;;;;5000795;28;20953;-47
2021/09/13 12:30:34;;;;;;;3.50;3.20;;;34.60;34.00;;;;;;5007796;28;20940;-45
2021/09/13 12:33:02;;;;;;;3.50;3.30;;;34.50;33.60;;;;;;5010117;28;20466;-45
2021/09/13 12:35:39;;;;;;;3.40;3.10;;;34.40;33.60;;;;;;5008587;28;21047;-46
2021/09/13 12:38:16;;;;;;;3.27;3.07;;;34.50;33.40;;;;;;5005081;28;20447;-45
2021/09/13 12:40:54;;;;;;;3.93;3.63;;;34.40;33.60;;;;;;5005019;28;20437;-45
2021/09/13 12:43:31;;;;;;;3.50;3.00;;;34.50;33.30;;;;;;5005305;28;20451;-45
2021/09/13 12:46:05;;;;;;;6.07;3.03;;;34.10;33.00;;;;;;5007374;28;20440;-45
2021/09/13 12:48:32;;;;;;;3.17;2.97;;;34.20;33.30;;;;;;5008692;28;20445;-45
2021/09/13 12:50:58;;;;;;;3.17;2.93;;;34.20;33.20;;;;;;5011383;28;20452;-49
2021/09/13 12:53:28;;;;;;;3.60;3.30;;;34.30;32.60;;;;;;5010175;28;20462;-45
2021/09/13 12:55:54;;;;;;;3.37;3.07;;;34.50;32.20;;;;;;5006318;28;20218;-45
2021/09/13 12:58:27;;;;;;;3.30;3.10;;;34.10;32.10;;;;;;5003330;28;20487;-46
2021/09/13 13:00:54;;;;;;;3.40;3.10;;;33.90;34.40;;;;;;5005761;28;20809;-44